Time;durP1;ratioP1;P1;durP2;ratioP2;P2;SDS_P1;SDS_P2;PMS_P1;PMS_P2;Temp;Humidity;BMP_temperature;BMP_pressure;BME280_temperature;BME280_humidity;BME280_pressure;Samples;Min_cycle;Max_cycle;Signal;HPM_P1;HPM_P2
2021/03/23 00:02:29;;;;;;;57.1;33.7;;;;;;;-0.58;100;98958.94;;;;
2021/03/23 00:12:27;;;;;;;45.8;35.2;;;;;;;-0.54;100;98946.06;;;;
2021/03/23 00:22:24;;;;;;;47;36.6;;;;;;;-0.58;100;98931.66;;;;
2021/03/23 00:32:21;;;;;;;47.6;35.4;;;;;;;-0.55;100;98937.31;;;;
2021/03/23 00:42:19;;;;;;;54.2;40;;;;;;;-0.51;100;98946.42;;;;
2021/03/23 00:52:16;;;;;;;46;34.7;;;;;;;-0.51;100;98938.48;;;;
2021/03/23 01:02:14;;;;;;;48.5;40.7;;;;;;;-0.55;100;98928.56;;;;
2021/03/23 01:12:11;;;;;;;56;43.2;;;;;;;-0.61;100;98926.83;;;;
2021/03/23 01:22:09;;;;;;;59.4;42;;;;;;;-0.62;100;98917.27;;;;
2021/03/23 01:32:06;;;;;;;58.1;45.2;;;;;;;-0.6;100;98921.32;;;;
2021/03/23 01:42:04;;;;;;;61.9;40.6;;;;;;;-0.61;100;98932.13;;;;
2021/03/23 01:52:01;;;;;;;56;42;;;;;;;-0.55;100;98933.86;;;;
2021/03/23 02:01:59;;;;;;;49.8;37.6;;;;;;;-0.52;100;98925.45;;;;
2021/03/23 02:11:56;;;;;;;57.2;42.7;;;;;;;-0.58;100;98918.43;;;;
2021/03/23 02:21:54;;;;;;;49.8;33.2;;;;;;;-0.55;100;98904.73;;;;
2021/03/23 02:31:51;;;;;;;39.2;33.1;;;;;;;-0.44;100;98911.09;;;;
2021/03/23 02:41:49;;;;;;;36.3;25;;;;;;;-0.34;100;98909.48;;;;
2021/03/23 02:51:51;;;;;;;40.8;28.1;;;;;;;-0.35;100;98901.79;;;;
2021/03/23 03:11:41;;;;;;;40.6;25.2;;;;;;;-0.14;98.38281;98901.22;;;;
2021/03/23 03:21:39;;;;;;;29.5;23;;;;;;;-0.06;97.70117;98903.5;;;;
2021/03/23 03:31:37;;;;;;;31.1;21.9;;;;;;;0.02;96.81152;98902.35;;;;
2021/03/23 03:41:36;;;;;;;28.2;21.1;;;;;;;0.02;96.94531;98905.81;;;;
2021/03/23 03:51:32;;;;;;;31.5;22.6;;;;;;;0.08;97.05371;98898.77;;;;
2021/03/23 04:01:29;;;;;;;37.8;26.9;;;;;;;0.1;97.34375;98896.71;;;;
2021/03/23 04:11:27;;;;;;;33.7;26.4;;;;;;;0.13;97.59082;98893.59;;;;
2021/03/23 04:21:24;;;;;;;33;23.4;;;;;;;0.14;96.92773;98903.95;;;;
2021/03/23 04:31:22;;;;;;;40.1;25.8;;;;;;;0.21;96.24121;98909.92;;;;
2021/03/23 04:41:20;;;;;;;27.4;21.9;;;;;;;0.24;95.91016;98914.79;;;;
2021/03/23 04:51:17;;;;;;;27.8;20.5;;;;;;;0.25;95.1123;98915.57;;;;
2021/03/23 05:01:15;;;;;;;33.8;20.3;;;;;;;0.36;93.7666;98922.7;;;;
2021/03/23 05:11:12;;;;;;;22;17.4;;;;;;;0.45;93.21582;98913.38;;;;
2021/03/23 05:21:10;;;;;;;26.1;18.3;;;;;;;0.56;92.31934;98923.12;;;;
2021/03/23 05:31:08;;;;;;;22.8;16.5;;;;;;;0.7;91.27246;98918.34;;;;
2021/03/23 05:41:05;;;;;;;22.2;15.8;;;;;;;0.88;90.79688;98932.25;;;;
2021/03/23 05:51:03;;;;;;;25.6;18.7;;;;;;;1.03;89.42969;98933.59;;;;
2021/03/23 06:01:01;;;;;;;26.2;20.3;;;;;;;1.24;88.82715;98941.69;;;;
2021/03/23 06:10:58;;;;;;;27.1;16.2;;;;;;;1.5;87.13965;98937.61;;;;
2021/03/23 06:20:56;;;;;;;23.2;16.5;;;;;;;1.74;86.09766;98951.55;;;;
2021/03/23 06:30:53;;;;;;;29.4;19.1;;;;;;;1.93;84.73828;98940.45;;;;
2021/03/23 06:40:51;;;;;;;22.3;16;;;;;;;2.22;83.60059;98948.31;;;;
2021/03/23 06:50:49;;;;;;;20.8;15.4;;;;;;;2.4;83.19531;98954.14;;;;
2021/03/23 07:00:47;;;;;;;25.2;16.9;;;;;;;2.54;81.19727;98946.61;;;;
2021/03/23 07:10:45;;;;;;;21.4;16.1;;;;;;;2.71;80.69727;98954.56;;;;
2021/03/23 07:20:45;;;;;;;23.1;13.2;;;;;;;3.15;79.41797;98945.48;;;;
2021/03/23 07:30:40;;;;;;;31;16.1;;;;;;;3.45;77.82227;98944.97;;;;
2021/03/23 07:40:39;;;;;;;24;15.3;;;;;;;3.51;76.35742;98954.61;;;;
2021/03/23 07:50:38;;;;;;;19.5;13.3;;;;;;;3.68;76.06543;98955.3;;;;
2021/03/23 08:01:13;;;;;;;20.9;15.4;;;;;;;3.85;75.71777;98955.97;;;;
2021/03/23 08:10:32;;;;;;;22.6;16.5;;;;;;;3.54;76.36133;98954.91;;;;
2021/03/23 08:20:30;;;;;;;22.8;15.6;;;;;;;3.8;75.86523;98958.61;;;;
2021/03/23 08:30:28;;;;;;;22.9;17.8;;;;;;;3.43;77.11914;98963.08;;;;
2021/03/23 08:40:26;;;;;;;26.3;19.3;;;;;;;3.55;78.13867;98953.05;;;;
2021/03/23 08:50:23;;;;;;;26.5;18;;;;;;;3.48;78.12598;98947.13;;;;
2021/03/23 09:00:21;;;;;;;27.4;18.9;;;;;;;3.67;78.16016;98963.56;;;;
2021/03/23 09:10:19;;;;;;;24.2;19.6;;;;;;;3.71;78.12402;98957.48;;;;
2021/03/23 09:20:17;;;;;;;34;23;;;;;;;4.27;77.28125;98961.34;;;;
2021/03/23 09:30:15;;;;;;;33.6;22.7;;;;;;;4.49;77.1416;98961.21;;;;
2021/03/23 09:40:13;;;;;;;24;19.2;;;;;;;4.75;76.05371;98954.15;;;;
2021/03/23 09:50:11;;;;;;;32.4;21;;;;;;;5.12;75.60645;98941.45;;;;
2021/03/23 10:00:09;;;;;;;28.2;21.3;;;;;;;5.63;76.34082;98936.19;;;;
2021/03/23 10:10:07;;;;;;;27.5;20.6;;;;;;;5.83;75.22754;98936.99;;;;
2021/03/23 10:20:05;;;;;;;34.1;19.9;;;;;;;6.18;73.99121;98922.04;;;;
2021/03/23 10:30:04;;;;;;;31.3;20.9;;;;;;;5.68;75.45801;98928.18;;;;
2021/03/23 10:40:02;;;;;;;33.6;19.3;;;;;;;5.09;78.64258;98941.98;;;;
2021/03/23 10:50:00;;;;;;;36.7;32.9;;;;;;;4.75;81.0498;98933.59;;;;
2021/03/23 10:59:58;;;;;;;22.4;17.5;;;;;;;4.92;82.20313;98944.07;;;;
2021/03/23 11:09:58;;;;;;;21.8;18.1;;;;;;;5.03;83.27148;98938.48;;;;
2021/03/23 11:19:57;;;;;;;27.3;18;;;;;;;5.22;83.33984;98941.48;;;;
2021/03/23 11:29:52;;;;;;;24;17.6;;;;;;;5.96;81.52148;98917.78;;;;
2021/03/23 11:39:51;;;;;;;24.7;15.8;;;;;;;6.22;80.7002;98907.02;;;;
2021/03/23 11:49:49;;;;;;;21.9;17.9;;;;;;;6.52;79.22461;98906.95;;;;
2021/03/23 11:59:47;;;;;;;23;17.1;;;;;;;6.86;77.37695;98910.56;;;;
2021/03/23 12:09:47;;;;;;;25.2;15.9;;;;;;;6.84;77.28418;98912.7;;;;
2021/03/23 12:19:44;;;;;;;25.1;22.4;;;;;;;6.24;81.09375;98920.95;;;;
2021/03/23 12:29:42;;;;;;;32.2;24;;;;;;;6.7;80.57715;98927.75;;;;
2021/03/23 12:39:40;;;;;;;25.8;20.3;;;;;;;6.35;81.58398;98909.15;;;;
2021/03/23 12:49:39;;;;;;;24.3;18.9;;;;;;;6.37;80.41602;98915.83;;;;
2021/03/23 12:59:37;;;;;;;28.3;23.9;;;;;;;6.16;82.46191;98926.84;;;;
2021/03/23 13:09:39;;;;;;;28.5;23.3;;;;;;;5.99;83.53418;98919.91;;;;
2021/03/23 13:19:34;;;;;;;29.1;21.9;;;;;;;5.92;83.35156;98918.58;;;;
2021/03/23 13:29:32;;;;;;;28.2;21.6;;;;;;;5.64;84.61133;98924.43;;;;
2021/03/23 13:39:30;;;;;;;23.1;20.4;;;;;;;5.35;86.22363;98916.91;;;;
2021/03/23 13:49:28;;;;;;;27.9;25;;;;;;;5.33;86.67383;98912.91;;;;
2021/03/23 13:59:26;;;;;;;32.2;21.6;;;;;;;5.29;87.2002;98911.83;;;;
2021/03/23 14:09:24;;;;;;;31.3;23.7;;;;;;;5.58;86.43652;98919.09;;;;
2021/03/23 14:19:23;;;;;;;34;26;;;;;;;5.42;86.99316;98896.08;;;;
2021/03/23 14:29:21;;;;;;;39.4;24.4;;;;;;;5.41;87.16797;98899.03;;;;
2021/03/23 14:39:19;;;;;;;28.8;19.7;;;;;;;5.32;87.80566;98892.59;;;;
2021/03/23 14:49:17;;;;;;;26.5;22.9;;;;;;;5.28;88.30762;98902.2;;;;
2021/03/23 14:59:15;;;;;;;30.5;22.7;;;;;;;5.22;87.92969;98906.75;;;;
2021/03/23 15:09:13;;;;;;;30;22.1;;;;;;;5.26;87.37207;98907.83;;;;
2021/03/23 15:19:11;;;;;;;27.1;18.9;;;;;;;5.37;86.37109;98900.63;;;;
2021/03/23 15:29:09;;;;;;;31.4;20.2;;;;;;;5.49;85.57129;98917.2;;;;
2021/03/23 15:39:08;;;;;;;24.7;19.2;;;;;;;5.65;84.22168;98923.37;;;;
2021/03/23 15:49:06;;;;;;;22.5;14.3;;;;;;;5.62;83.00488;98918.56;;;;
2021/03/23 15:59:04;;;;;;;18.4;14.9;;;;;;;5.71;82.6543;98923.1;;;;
2021/03/23 16:09:04;;;;;;;26.7;17;;;;;;;5.74;82.79395;98937.8;;;;
2021/03/23 16:19:00;;;;;;;23.7;15.5;;;;;;;5.72;82.86816;98945.3;;;;
2021/03/23 16:28:59;;;;;;;20.8;14.3;;;;;;;5.76;81.24902;98938.36;;;;
2021/03/23 16:38:57;;;;;;;18.9;15.2;;;;;;;5.74;81.48047;98951.98;;;;
2021/03/23 16:48:55;;;;;;;21.4;16.2;;;;;;;5.64;81.75;98949.3;;;;
2021/03/23 16:58:53;;;;;;;24.5;17.3;;;;;;;5.56;82.57227;98953.3;;;;
2021/03/23 17:08:51;;;;;;;35.5;23.6;;;;;;;5.48;83.47852;98971.75;;;;
2021/03/23 17:18:50;;;;;;;24.1;17.9;;;;;;;5.42;84.20117;98988.81;;;;
2021/03/23 17:28:49;;;;;;;22.7;18.9;;;;;;;5.34;85.21973;98989.35;;;;
2021/03/23 17:38:46;;;;;;;26.6;21.5;;;;;;;5.27;85.46289;98992.28;;;;
2021/03/23 17:48:44;;;;;;;30.5;23.1;;;;;;;5.26;86.01465;99005.89;;;;
2021/03/23 17:58:43;;;;;;;30.7;23.3;;;;;;;5.2;86.23535;99009.62;;;;
2021/03/23 18:08:41;;;;;;;38.1;24.9;;;;;;;5.18;86.8877;99025.09;;;;
2021/03/23 18:18:39;;;;;;;31.8;26.9;;;;;;;5.1;87.43945;99031.76;;;;
2021/03/23 18:28:37;;;;;;;30.6;24.6;;;;;;;5.03;88.08008;99033.86;;;;
2021/03/23 18:38:38;;;;;;;40.9;23.5;;;;;;;5.03;88.53711;99034.64;;;;
2021/03/23 18:48:33;;;;;;;34.9;25.3;;;;;;;4.96;89.12012;99036.74;;;;
2021/03/23 18:58:31;;;;;;;29.6;26.5;;;;;;;4.91;90.11816;99041.27;;;;
2021/03/23 19:08:29;;;;;;;32.7;29.1;;;;;;;4.72;92.48535;99056.91;;;;
2021/03/23 19:18:27;;;;;;;35.4;28.5;;;;;;;4.62;93.13867;99053.39;;;;
2021/03/23 19:28:25;;;;;;;48.9;31.9;;;;;;;4.51;94.15625;99049.85;;;;
2021/03/23 19:38:23;;;;;;;39.6;32.6;;;;;;;4.39;95.04688;99058.03;;;;
2021/03/23 19:48:22;;;;;;;36.5;30.4;;;;;;;4.39;95.4668;99071.38;;;;
2021/03/23 19:58:20;;;;;;;40.2;30.5;;;;;;;4.33;95.99707;99063.59;;;;
2021/03/23 20:08:18;;;;;;;38.4;33.3;;;;;;;4.25;96.79688;99075.52;;;;
2021/03/23 20:18:16;;;;;;;39.2;33.9;;;;;;;4.21;97.4375;99081.61;;;;
2021/03/23 20:28:14;;;;;;;40.5;28.8;;;;;;;4.23;97.4209;99090.19;;;;
2021/03/23 20:38:12;;;;;;;34.2;27.8;;;;;;;4.24;97.45605;99089.1;;;;
2021/03/23 20:48:09;;;;;;;36.6;26;;;;;;;4.15;97.64551;99066.63;;;;
2021/03/23 20:58:07;;;;;;;36.2;26.7;;;;;;;4.27;97.85059;99091.3;;;;
2021/03/23 21:08:05;;;;;;;33.3;25.5;;;;;;;4.26;98.05664;99119.02;;;;
2021/03/23 21:18:03;;;;;;;37.6;26.9;;;;;;;4.23;98.4375;99130.2;;;;
2021/03/23 21:28:01;;;;;;;28.5;25.4;;;;;;;4.2;98.54199;99139.48;;;;
2021/03/23 21:37:59;;;;;;;40.4;28.5;;;;;;;4.18;99.04395;99140.81;;;;
2021/03/23 21:47:57;;;;;;;35.2;27.2;;;;;;;4.24;99.00293;99142.46;;;;
2021/03/23 21:57:55;;;;;;;31.6;25;;;;;;;4.22;99.41797;99144.59;;;;
2021/03/23 22:07:53;;;;;;;27;21.8;;;;;;;4.27;99.32031;99152.66;;;;
2021/03/23 22:17:51;;;;;;;50.7;32.2;;;;;;;4.23;99.45313;99148.88;;;;
2021/03/23 22:27:49;;;;;;;35.5;26.2;;;;;;;4.21;99.61523;99146.45;;;;
2021/03/23 22:37:47;;;;;;;32.1;24.6;;;;;;;4.25;99.55859;99155.56;;;;
2021/03/23 22:47:45;;;;;;;31.2;24.6;;;;;;;4.21;100;99153.64;;;;
2021/03/23 22:57:43;;;;;;;24.8;18.2;;;;;;;4.26;99.66895;99151.03;;;;
2021/03/23 23:07:41;;;;;;;23.6;17;;;;;;;4.29;99.50098;99145.19;;;;
2021/03/23 23:17:39;;;;;;;27.5;18.9;;;;;;;4.32;98.96777;99150.83;;;;
2021/03/23 23:27:38;;;;;;;26.2;16.4;;;;;;;4.33;98.93652;99151.64;;;;
2021/03/23 23:37:39;;;;;;;21.3;16.1;;;;;;;4.34;99.75586;99159.38;;;;
2021/03/23 23:47:34;;;;;;;23.9;14.1;;;;;;;4.26;100;99161.7;;;;
2021/03/23 23:57:32;;;;;;;28.3;18.4;;;;;;;4.08;100;99181.53;;;;
